PWSweather.com
Personal Weather Stations
Station Observations
OBSERWACJEMETEO
Skórowo, SkorowoPL 76-230

SkórowoSkorowoPL 76-230

Lat: 54.5030556, Lon: 17.5277777

Elevation: 77

Station Type: WH2080

http://obserwacjemeteo.eu/

Latest ConditionsUpdated 11:20:02 PM GMT+01:01 Sunday, Jan 19, 2020
Currently Today's Max Today's Min Today's Average
Temperature 39.4°F4.1°C 43.3°F6.3°C 36.3°F2.4°C 39.8°F4.3°C
Dew Point 33.1°F0.6°C 37.1°F2.8°C 30.3°F-0.9°C 33.5°F0.8°C
Winds 4.5 mph WSW7.2 kmh WSW 6.0 mph -9.7 kmh - - 2.9 mph 4.7 kmh
Wind Gusts 6.9 mph11.1 kmh 9.8 mph15.8 kmh - -
Humidity 78% 84% 71% 78%
Pressure 30.68 in1038.9 mb 30.68 in1038.9 mb 30.18 in1022.0 mb -
Hour Temp Dew Point Humidity Winds Wind Gusts Pressure Precip Precip Rate Daily Precip Total
11:20 PM 39.4°F4.1°C 33.1°F0.6°C 78% 4.5 mph WSW7.2 kmh WSW 6.9 mph11.1 kmh 30.68 in1038.9 mb 0.00 in0.0 mm 0.00 in0.0 mm 0.00 in0.0 mm
11:10 PM 39.2°F4.0°C 32.9°F0.5°C 78% 0.7 mph SW1.1 kmh SW 3.8 mph6.1 kmh 30.68 in1038.9 mb 0.00 in0.0 mm 0.00 in0.0 mm 0.00 in0.0 mm
11:00 PM 39.2°F4.0°C 32.6°F0.3°C 77% 1.6 mph SSW2.6 kmh SSW 2.2 mph3.5 kmh 30.67 in1038.6 mb 0.00 in0.0 mm 0.00 in0.0 mm 0.00 in0.0 mm
10:50 PM 39.2°F4.0°C 32.6°F0.3°C 77% Calm Calm 3.1 mph5.0 kmh 30.66 in1038.3 mb 0.00 in0.0 mm 0.00 in0.0 mm 0.00 in0.0 mm
10:40 PM 39.2°F4.0°C 32.3°F0.2°C 76% 1.6 mph SW2.6 kmh SW 6.0 mph9.7 kmh 30.66 in1038.3 mb 0.00 in0.0 mm 0.00 in0.0 mm 0.00 in0.0 mm
10:30 PM 39.4°F4.1°C 32.5°F0.3°C 76% 0.7 mph WSW1.1 kmh WSW 7.6 mph12.2 kmh 30.66 in1038.3 mb 0.00 in0.0 mm 0.00 in0.0 mm 0.00 in0.0 mm
10:20 PM 39.4°F4.1°C 32.5°F0.3°C 76% 2.2 mph WSW3.5 kmh WSW 6.9 mph11.1 kmh 30.66 in1038.3 mb 0.00 in0.0 mm 0.00 in0.0 mm 0.00 in0.0 mm
10:10 PM 39.4°F4.1°C 32.5°F0.3°C 76% 1.6 mph S2.6 kmh S 3.1 mph5.0 kmh 30.65 in1037.9 mb 0.00 in0.0 mm 0.00 in0.0 mm 0.00 in0.0 mm
10:00 PM 39.4°F4.1°C 32.8°F0.4°C 77% 1.6 mph WSW2.6 kmh WSW 8.3 mph13.4 kmh 30.65 in1037.9 mb 0.00 in0.0 mm 0.00 in0.0 mm 0.00 in0.0 mm
09:50 PM 39.2°F4.0°C 32.6°F0.3°C 77% 0.7 mph WSW1.1 kmh WSW 4.5 mph7.2 kmh 30.64 in1037.6 mb 0.00 in0.0 mm 0.00 in0.0 mm 0.00 in0.0 mm
09:40 PM 39.0°F3.9°C 32.4°F0.2°C 77% 0.7 mph SW1.1 kmh SW 4.5 mph7.2 kmh 30.65 in1037.9 mb 0.00 in0.0 mm 0.00 in0.0 mm 0.00 in0.0 mm
09:30 PM 39.0°F3.9°C 32.4°F0.2°C 77% 1.6 mph SW2.6 kmh SW 5.4 mph8.7 kmh 30.64 in1037.6 mb 0.00 in0.0 mm 0.00 in0.0 mm 0.00 in0.0 mm
09:20 PM 39.0°F3.9°C 32.4°F0.2°C 77% 1.6 mph SW2.6 kmh SW 3.8 mph6.1 kmh 30.64 in1037.6 mb 0.00 in0.0 mm 0.00 in0.0 mm 0.00 in0.0 mm
09:10 PM 39.4°F4.1°C 32.8°F0.4°C 77% Calm Calm 6.0 mph9.7 kmh 30.64 in1037.6 mb 0.00 in0.0 mm 0.00 in0.0 mm 0.00 in0.0 mm
09:00 PM 39.6°F4.2°C 33.0°F0.6°C 77% 1.6 mph WSW2.6 kmh WSW 3.8 mph6.1 kmh 30.62 in1036.9 mb 0.00 in0.0 mm 0.00 in0.0 mm 0.00 in0.0 mm
08:50 PM 39.7°F4.3°C 33.1°F0.6°C 77% 2.2 mph WSW3.5 kmh WSW 5.4 mph8.7 kmh 30.63 in1037.3 mb 0.00 in0.0 mm 0.00 in0.0 mm 0.00 in0.0 mm
08:40 PM 39.7°F4.3°C 33.1°F0.6°C 77% 3.1 mph SW5.0 kmh SW 4.5 mph7.2 kmh 30.63 in1037.3 mb 0.00 in0.0 mm 0.00 in0.0 mm 0.00 in0.0 mm
08:30 PM 39.7°F4.3°C 32.8°F0.4°C 76% 2.2 mph SW3.5 kmh SW 4.5 mph7.2 kmh 30.62 in1036.9 mb 0.00 in0.0 mm 0.00 in0.0 mm 0.00 in0.0 mm
08:20 PM 39.9°F4.4°C 33.3°F0.7°C 77% 0.7 mph W1.1 kmh W 6.0 mph9.7 kmh 30.62 in1036.9 mb 0.00 in0.0 mm 0.00 in0.0 mm 0.00 in0.0 mm
08:10 PM 39.7°F4.3°C 33.1°F0.6°C 77% 3.8 mph W6.1 kmh W 4.5 mph7.2 kmh 30.62 in1036.9 mb 0.00 in0.0 mm 0.00 in0.0 mm 0.00 in0.0 mm
08:00 PM 39.7°F4.3°C 33.1°F0.6°C 77% 3.1 mph WSW5.0 kmh WSW 6.0 mph9.7 kmh 30.61 in1036.6 mb 0.00 in0.0 mm 0.00 in0.0 mm 0.00 in0.0 mm
07:50 PM 39.7°F4.3°C 33.1°F0.6°C 77% 4.5 mph W7.2 kmh W 6.0 mph9.7 kmh 30.62 in1036.9 mb 0.00 in0.0 mm 0.00 in0.0 mm 0.00 in0.0 mm
07:40 PM 39.9°F4.4°C 33.3°F0.7°C 77% 2.2 mph SW3.5 kmh SW 3.8 mph6.1 kmh 30.61 in1036.6 mb 0.00 in0.0 mm 0.00 in0.0 mm 0.00 in0.0 mm
07:30 PM 40.1°F4.5°C 33.5°F0.8°C 77% 1.6 mph WSW2.6 kmh WSW 4.5 mph7.2 kmh 30.61 in1036.6 mb 0.00 in0.0 mm 0.00 in0.0 mm 0.00 in0.0 mm
07:20 PM 40.1°F4.5°C 33.5°F0.8°C 77% 1.6 mph WSW2.6 kmh WSW 3.8 mph6.1 kmh 30.61 in1036.6 mb 0.00 in0.0 mm 0.00 in0.0 mm 0.00 in0.0 mm
07:10 PM 40.1°F4.5°C 33.5°F0.8°C 77% 1.6 mph WSW2.6 kmh WSW 4.5 mph7.2 kmh 30.60 in1036.2 mb 0.00 in0.0 mm 0.00 in0.0 mm 0.00 in0.0 mm
07:00 PM 40.3°F4.6°C 33.7°F0.9°C 77% 3.1 mph SW5.0 kmh SW 4.5 mph7.2 kmh 30.59 in1035.9 mb 0.00 in0.0 mm 0.00 in0.0 mm 0.00 in0.0 mm
06:50 PM 40.3°F4.6°C 33.3°F0.7°C 76% Calm Calm 3.8 mph6.1 kmh 30.59 in1035.9 mb 0.00 in0.0 mm 0.00 in0.0 mm 0.00 in0.0 mm
06:40 PM 40.5°F4.7°C 33.5°F0.8°C 76% Calm Calm 3.1 mph5.0 kmh 30.59 in1035.9 mb 0.00 in0.0 mm 0.00 in0.0 mm 0.00 in0.0 mm
06:30 PM 40.6°F4.8°C 33.3°F0.7°C 75% 1.6 mph WSW2.6 kmh WSW 9.2 mph14.8 kmh 30.59 in1035.9 mb 0.00 in0.0 mm 0.00 in0.0 mm 0.00 in0.0 mm
06:20 PM 40.6°F4.8°C 33.7°F0.9°C 76% 3.1 mph WSW5.0 kmh WSW 8.3 mph13.4 kmh 30.57 in1035.2 mb 0.00 in0.0 mm 0.00 in0.0 mm 0.00 in0.0 mm
06:10 PM 40.6°F4.8°C 33.7°F0.9°C 76% 3.1 mph W5.0 kmh W 3.8 mph6.1 kmh 30.57 in1035.2 mb 0.00 in0.0 mm 0.00 in0.0 mm 0.00 in0.0 mm
06:00 PM 40.6°F4.8°C 33.7°F0.9°C 76% 0.7 mph WSW1.1 kmh WSW 3.8 mph6.1 kmh 30.56 in1034.9 mb 0.00 in0.0 mm 0.00 in0.0 mm 0.00 in0.0 mm
05:50 PM 40.6°F4.8°C 33.7°F0.9°C 76% 1.6 mph W2.6 kmh W 6.9 mph11.1 kmh 30.56 in1034.9 mb 0.00 in0.0 mm 0.00 in0.0 mm 0.00 in0.0 mm
05:40 PM 40.6°F4.8°C 33.7°F0.9°C 76% 0.7 mph WSW1.1 kmh WSW 6.9 mph11.1 kmh 30.55 in1034.5 mb 0.00 in0.0 mm 0.00 in0.0 mm 0.00 in0.0 mm
05:30 PM 40.5°F4.7°C 33.5°F0.8°C 76% 1.6 mph SSW2.6 kmh SSW 3.1 mph5.0 kmh 30.55 in1034.5 mb 0.00 in0.0 mm 0.00 in0.0 mm 0.00 in0.0 mm
05:20 PM 40.6°F4.8°C 33.3°F0.7°C 75% 1.6 mph WSW2.6 kmh WSW 3.8 mph6.1 kmh 30.54 in1034.2 mb 0.00 in0.0 mm 0.00 in0.0 mm 0.00 in0.0 mm
05:10 PM 40.6°F4.8°C 33.3°F0.7°C 75% Calm Calm 6.0 mph9.7 kmh 30.54 in1034.2 mb 0.00 in0.0 mm 0.00 in0.0 mm 0.00 in0.0 mm
05:00 PM 40.8°F4.9°C 33.2°F0.7°C 74% 0.7 mph WSW1.1 kmh WSW 5.4 mph8.7 kmh 30.54 in1034.2 mb 0.00 in0.0 mm 0.00 in0.0 mm 0.00 in0.0 mm
04:50 PM 40.8°F4.9°C 33.2°F0.7°C 74% 1.6 mph WSW2.6 kmh WSW 6.9 mph11.1 kmh 30.54 in1034.2 mb 0.00 in0.0 mm 0.00 in0.0 mm 0.00 in0.0 mm
04:40 PM 40.8°F4.9°C 33.2°F0.7°C 74% 4.5 mph WSW7.2 kmh WSW 6.9 mph11.1 kmh 30.54 in1034.2 mb 0.00 in0.0 mm 0.00 in0.0 mm 0.00 in0.0 mm
04:30 PM 41.0°F5.0°C 33.4°F0.8°C 74% 5.4 mph SW8.7 kmh SW 8.3 mph13.4 kmh 30.53 in1033.9 mb 0.00 in0.0 mm 0.00 in0.0 mm 0.00 in0.0 mm
04:20 PM 41.0°F5.0°C 33.4°F0.8°C 74% 3.8 mph W6.1 kmh W 7.6 mph12.2 kmh 30.53 in1033.9 mb 0.00 in0.0 mm 0.00 in0.0 mm 0.00 in0.0 mm
04:10 PM 41.0°F5.0°C 33.7°F0.9°C 75% 3.1 mph SSW5.0 kmh SSW 9.2 mph14.8 kmh 30.53 in1033.9 mb 0.00 in0.0 mm 0.00 in0.0 mm 0.00 in0.0 mm
04:00 PM 41.2°F5.1°C 33.9°F1.1°C 75% 3.1 mph WSW5.0 kmh WSW 6.9 mph11.1 kmh 30.51 in1033.2 mb 0.00 in0.0 mm 0.00 in0.0 mm 0.00 in0.0 mm
03:50 PM 41.4°F5.2°C 33.7°F0.9°C 74% 4.5 mph WSW7.2 kmh WSW 6.9 mph11.1 kmh 30.51 in1033.2 mb 0.00 in0.0 mm 0.00 in0.0 mm 0.00 in0.0 mm
03:40 PM 41.5°F5.3°C 33.9°F1.1°C 74% 4.5 mph W7.2 kmh W 9.8 mph15.8 kmh 30.50 in1032.8 mb 0.00 in0.0 mm 0.00 in0.0 mm 0.00 in0.0 mm
03:30 PM 41.7°F5.4°C 34.1°F1.2°C 74% 3.1 mph W5.0 kmh W 8.3 mph13.4 kmh 30.50 in1032.8 mb 0.00 in0.0 mm 0.00 in0.0 mm 0.00 in0.0 mm
03:20 PM 41.9°F5.5°C 34.2°F1.2°C 74% 6.0 mph W9.7 kmh W 9.2 mph14.8 kmh 30.50 in1032.8 mb 0.00 in0.0 mm 0.00 in0.0 mm 0.00 in0.0 mm
03:10 PM 42.1°F5.6°C 34.4°F1.3°C 74% 4.5 mph W7.2 kmh W 6.9 mph11.1 kmh 30.49 in1032.5 mb 0.00 in0.0 mm 0.00 in0.0 mm 0.00 in0.0 mm
03:00 PM 42.1°F5.6°C 34.7°F1.5°C 75% 3.8 mph W6.1 kmh W 6.9 mph11.1 kmh 30.49 in1032.5 mb 0.00 in0.0 mm 0.00 in0.0 mm 0.00 in0.0 mm
02:50 PM 42.3°F5.7°C 35.2°F1.8°C 76% 1.6 mph WNW2.6 kmh WNW 3.8 mph6.1 kmh 30.48 in1032.2 mb 0.00 in0.0 mm 0.00 in0.0 mm 0.00 in0.0 mm
02:40 PM 42.4°F5.8°C 35.4°F1.9°C 76% 1.6 mph SW2.6 kmh SW 5.4 mph8.7 kmh 30.47 in1031.8 mb 0.00 in0.0 mm 0.00 in0.0 mm 0.00 in0.0 mm
02:30 PM 42.6°F5.9°C 35.3°F1.8°C 75% 0.7 mph W1.1 kmh W 5.4 mph8.7 kmh 30.48 in1032.2 mb 0.00 in0.0 mm 0.00 in0.0 mm 0.00 in0.0 mm
02:20 PM 43.0°F6.1°C 35.6°F2.0°C 75% 2.2 mph WSW3.5 kmh WSW 7.6 mph12.2 kmh 30.47 in1031.8 mb 0.00 in0.0 mm 0.00 in0.0 mm 0.00 in0.0 mm
02:10 PM 43.2°F6.2°C 35.8°F2.1°C 75% 6.0 mph NNW9.7 kmh NNW 6.9 mph11.1 kmh 30.47 in1031.8 mb 0.00 in0.0 mm 0.00 in0.0 mm 0.00 in0.0 mm
02:00 PM 43.2°F6.2°C 36.1°F2.3°C 76% 1.6 mph W2.6 kmh W 4.5 mph7.2 kmh 30.46 in1031.5 mb 0.00 in0.0 mm 0.00 in0.0 mm 0.00 in0.0 mm
01:50 PM 43.3°F6.3°C 36.3°F2.4°C 76% 0.7 mph SW1.1 kmh SW 6.0 mph9.7 kmh 30.45 in1031.2 mb 0.00 in0.0 mm 0.00 in0.0 mm 0.00 in0.0 mm
01:40 PM 43.3°F6.3°C 36.3°F2.4°C 76% 2.2 mph W3.5 kmh W 4.5 mph7.2 kmh 30.45 in1031.2 mb 0.00 in0.0 mm 0.00 in0.0 mm 0.00 in0.0 mm
01:30 PM 43.3°F6.3°C 36.6°F2.6°C 77% 1.6 mph SW2.6 kmh SW 6.0 mph9.7 kmh 30.45 in1031.2 mb 0.00 in0.0 mm 0.00 in0.0 mm 0.00 in0.0 mm
01:20 PM 43.3°F6.3°C 36.9°F2.7°C 78% 0.7 mph WSW1.1 kmh WSW 6.0 mph9.7 kmh 30.44 in1030.8 mb 0.00 in0.0 mm 0.00 in0.0 mm 0.00 in0.0 mm
01:10 PM 43.2°F6.2°C 36.8°F2.7°C 78% 1.6 mph WNW2.6 kmh WNW 6.0 mph9.7 kmh 30.45 in1031.2 mb 0.00 in0.0 mm 0.00 in0.0 mm 0.00 in0.0 mm
01:00 PM 43.2°F6.2°C 36.8°F2.7°C 78% 2.2 mph WSW3.5 kmh WSW 6.0 mph9.7 kmh 30.44 in1030.8 mb 0.00 in0.0 mm 0.00 in0.0 mm 0.00 in0.0 mm
12:50 PM 43.2°F6.2°C 36.8°F2.7°C 78% 1.6 mph WSW2.6 kmh WSW 3.8 mph6.1 kmh 30.43 in1030.5 mb 0.00 in0.0 mm 0.00 in0.0 mm 0.00 in0.0 mm
12:40 PM 43.2°F6.2°C 37.1°F2.8°C 79% 0.7 mph SSW1.1 kmh SSW 6.0 mph9.7 kmh 30.44 in1030.8 mb 0.00 in0.0 mm 0.00 in0.0 mm 0.00 in0.0 mm
12:30 PM 43.0°F6.1°C 36.9°F2.7°C 79% 3.1 mph SW5.0 kmh SW 4.5 mph7.2 kmh 30.43 in1030.5 mb 0.00 in0.0 mm 0.00 in0.0 mm 0.00 in0.0 mm
12:20 PM 42.8°F6.0°C 36.7°F2.6°C 79% 1.6 mph SSW2.6 kmh SSW 6.9 mph11.1 kmh 30.43 in1030.5 mb 0.00 in0.0 mm 0.00 in0.0 mm 0.00 in0.0 mm
12:10 PM 42.8°F6.0°C 36.7°F2.6°C 79% 1.6 mph WNW2.6 kmh WNW 5.4 mph8.7 kmh 30.43 in1030.5 mb 0.00 in0.0 mm 0.00 in0.0 mm 0.00 in0.0 mm
12:00 PM 42.8°F6.0°C 36.7°F2.6°C 79% 2.2 mph SW3.5 kmh SW 4.5 mph7.2 kmh 30.42 in1030.1 mb 0.00 in0.0 mm 0.00 in0.0 mm 0.00 in0.0 mm
11:50 AM 42.6°F5.9°C 36.9°F2.7°C 80% 2.2 mph SW3.5 kmh SW 4.5 mph7.2 kmh 30.43 in1030.5 mb 0.00 in0.0 mm 0.00 in0.0 mm 0.00 in0.0 mm
11:40 AM 42.3°F5.7°C 36.5°F2.5°C 80% 3.8 mph SW6.1 kmh SW 6.0 mph9.7 kmh 30.42 in1030.1 mb 0.00 in0.0 mm 0.00 in0.0 mm 0.00 in0.0 mm
11:30 AM 42.1°F5.6°C 36.4°F2.4°C 80% 4.5 mph SW7.2 kmh SW 6.9 mph11.1 kmh 30.41 in1029.8 mb 0.00 in0.0 mm 0.00 in0.0 mm 0.00 in0.0 mm
11:20 AM 41.9°F5.5°C 36.2°F2.3°C 80% 5.4 mph SW8.7 kmh SW 6.0 mph9.7 kmh 30.41 in1029.8 mb 0.00 in0.0 mm 0.00 in0.0 mm 0.00 in0.0 mm
11:10 AM 41.5°F5.3°C 35.8°F2.1°C 80% 3.8 mph SW6.1 kmh SW 5.4 mph8.7 kmh 30.41 in1029.8 mb 0.00 in0.0 mm 0.00 in0.0 mm 0.00 in0.0 mm
11:00 AM 41.5°F5.3°C 36.2°F2.3°C 81% 3.8 mph SW6.1 kmh SW 5.4 mph8.7 kmh 30.41 in1029.8 mb 0.00 in0.0 mm 0.00 in0.0 mm 0.00 in0.0 mm
10:50 AM 41.4°F5.2°C 36.0°F2.2°C 81% 3.8 mph SW6.1 kmh SW 4.5 mph7.2 kmh 30.41 in1029.8 mb 0.00 in0.0 mm 0.00 in0.0 mm 0.00 in0.0 mm
10:40 AM 41.4°F5.2°C 36.0°F2.2°C 81% 3.1 mph SW5.0 kmh SW 4.5 mph7.2 kmh 30.41 in1029.8 mb 0.00 in0.0 mm 0.00 in0.0 mm 0.00 in0.0 mm
10:30 AM 41.2°F5.1°C 36.1°F2.3°C 82% 2.2 mph SW3.5 kmh SW 3.8 mph6.1 kmh 30.40 in1029.5 mb 0.00 in0.0 mm 0.00 in0.0 mm 0.00 in0.0 mm
10:20 AM 41.0°F5.0°C 35.9°F2.2°C 82% 1.6 mph SW2.6 kmh SW 6.0 mph9.7 kmh 30.39 in1029.1 mb 0.00 in0.0 mm 0.00 in0.0 mm 0.00 in0.0 mm
10:10 AM 40.8°F4.9°C 35.8°F2.1°C 82% 4.5 mph SW7.2 kmh SW 5.4 mph8.7 kmh 30.38 in1028.8 mb 0.00 in0.0 mm 0.00 in0.0 mm 0.00 in0.0 mm
10:00 AM 40.6°F4.8°C 35.6°F2.0°C 82% 3.1 mph SW5.0 kmh SW 6.0 mph9.7 kmh 30.38 in1028.8 mb 0.00 in0.0 mm 0.00 in0.0 mm 0.00 in0.0 mm
09:50 AM 40.5°F4.7°C 35.4°F1.9°C 82% 3.8 mph SW6.1 kmh SW 4.5 mph7.2 kmh 30.37 in1028.4 mb 0.00 in0.0 mm 0.00 in0.0 mm 0.00 in0.0 mm
09:40 AM 40.1°F4.5°C 35.4°F1.9°C 83% 2.2 mph SW3.5 kmh SW 6.0 mph9.7 kmh 30.37 in1028.4 mb 0.00 in0.0 mm 0.00 in0.0 mm 0.00 in0.0 mm
09:30 AM 39.9°F4.4°C 35.2°F1.8°C 83% 3.8 mph SW6.1 kmh SW 5.4 mph8.7 kmh 30.36 in1028.1 mb 0.00 in0.0 mm 0.00 in0.0 mm 0.00 in0.0 mm
09:20 AM 39.6°F4.2°C 34.8°F1.6°C 83% 4.5 mph SW7.2 kmh SW 6.0 mph9.7 kmh 30.36 in1028.1 mb 0.00 in0.0 mm 0.00 in0.0 mm 0.00 in0.0 mm
09:10 AM 39.4°F4.1°C 35.0°F1.7°C 84% 4.5 mph SW7.2 kmh SW 7.6 mph12.2 kmh 30.35 in1027.8 mb 0.00 in0.0 mm 0.00 in0.0 mm 0.00 in0.0 mm
09:00 AM 39.0°F3.9°C 34.6°F1.4°C 84% 4.5 mph SW7.2 kmh SW 6.9 mph11.1 kmh 30.34 in1027.4 mb 0.00 in0.0 mm 0.00 in0.0 mm 0.00 in0.0 mm
08:50 AM 38.7°F3.7°C 34.3°F1.3°C 84% 4.5 mph SW7.2 kmh SW 6.9 mph11.1 kmh 30.34 in1027.4 mb 0.00 in0.0 mm 0.00 in0.0 mm 0.00 in0.0 mm
08:40 AM 38.3°F3.5°C 33.6°F0.9°C 83% 4.5 mph SW7.2 kmh SW 6.0 mph9.7 kmh 30.34 in1027.4 mb 0.00 in0.0 mm 0.00 in0.0 mm 0.00 in0.0 mm
08:30 AM 38.5°F3.6°C 33.8°F1.0°C 83% 3.8 mph SW6.1 kmh SW 6.0 mph9.7 kmh 30.33 in1027.1 mb 0.00 in0.0 mm 0.00 in0.0 mm 0.00 in0.0 mm
08:20 AM 38.5°F3.6°C 33.8°F1.0°C 83% 4.5 mph SW7.2 kmh SW 6.9 mph11.1 kmh 30.33 in1027.1 mb 0.00 in0.0 mm 0.00 in0.0 mm 0.00 in0.0 mm
08:10 AM 38.5°F3.6°C 33.8°F1.0°C 83% 5.4 mph SW8.7 kmh SW 6.9 mph11.1 kmh 30.32 in1026.8 mb 0.00 in0.0 mm 0.00 in0.0 mm 0.00 in0.0 mm
08:00 AM 38.5°F3.6°C 33.8°F1.0°C 83% 3.1 mph SW5.0 kmh SW 5.4 mph8.7 kmh 30.32 in1026.8 mb 0.00 in0.0 mm 0.00 in0.0 mm 0.00 in0.0 mm
07:50 AM 38.5°F3.6°C 33.8°F1.0°C 83% 3.1 mph SSW5.0 kmh SSW 6.0 mph9.7 kmh 30.32 in1026.8 mb 0.00 in0.0 mm 0.00 in0.0 mm 0.00 in0.0 mm
07:40 AM 38.7°F3.7°C 34.0°F1.1°C 83% 3.8 mph SW6.1 kmh SW 6.0 mph9.7 kmh 30.31 in1026.4 mb 0.00 in0.0 mm 0.00 in0.0 mm 0.00 in0.0 mm
07:30 AM 38.7°F3.7°C 34.0°F1.1°C 83% 3.8 mph SW6.1 kmh SW 6.0 mph9.7 kmh 30.31 in1026.4 mb 0.00 in0.0 mm 0.00 in0.0 mm 0.00 in0.0 mm
07:20 AM 38.7°F3.7°C 34.0°F1.1°C 83% 4.5 mph SW7.2 kmh SW 6.0 mph9.7 kmh 30.30 in1026.1 mb 0.00 in0.0 mm 0.00 in0.0 mm 0.00 in0.0 mm
07:10 AM 38.5°F3.6°C 33.8°F1.0°C 83% 3.8 mph SW6.1 kmh SW 6.0 mph9.7 kmh 30.30 in1026.1 mb 0.00 in0.0 mm 0.00 in0.0 mm 0.00 in0.0 mm
07:00 AM 38.7°F3.7°C 34.0°F1.1°C 83% 4.5 mph SW7.2 kmh SW 6.0 mph9.7 kmh 30.29 in1025.7 mb 0.00 in0.0 mm 0.00 in0.0 mm 0.00 in0.0 mm
06:50 AM 38.5°F3.6°C 33.8°F1.0°C 83% 3.8 mph SW6.1 kmh SW 6.0 mph9.7 kmh 30.29 in1025.7 mb 0.00 in0.0 mm 0.00 in0.0 mm 0.00 in0.0 mm
06:40 AM 38.3°F3.5°C 33.6°F0.9°C 83% 5.4 mph SW8.7 kmh SW 6.0 mph9.7 kmh 30.28 in1025.4 mb 0.00 in0.0 mm 0.00 in0.0 mm 0.00 in0.0 mm
06:30 AM 38.3°F3.5°C 33.6°F0.9°C 83% 4.5 mph SSW7.2 kmh SSW 5.4 mph8.7 kmh 30.28 in1025.4 mb 0.00 in0.0 mm 0.00 in0.0 mm 0.00 in0.0 mm
06:20 AM 38.1°F3.4°C 33.4°F0.8°C 83% 3.8 mph SW6.1 kmh SW 5.4 mph8.7 kmh 30.28 in1025.4 mb 0.00 in0.0 mm 0.00 in0.0 mm 0.00 in0.0 mm
06:10 AM 37.9°F3.3°C 33.2°F0.7°C 83% 4.5 mph SW7.2 kmh SW 5.4 mph8.7 kmh 30.27 in1025.1 mb 0.00 in0.0 mm 0.00 in0.0 mm 0.00 in0.0 mm
06:00 AM 37.8°F3.2°C 33.1°F0.6°C 83% 3.8 mph SW6.1 kmh SW 5.4 mph8.7 kmh 30.27 in1025.1 mb 0.00 in0.0 mm 0.00 in0.0 mm 0.00 in0.0 mm
05:50 AM 37.6°F3.1°C 32.9°F0.5°C 83% 3.8 mph SW6.1 kmh SW 5.4 mph8.7 kmh 30.27 in1025.1 mb 0.00 in0.0 mm 0.00 in0.0 mm 0.00 in0.0 mm
05:40 AM 37.4°F3.0°C 32.4°F0.2°C 82% 3.1 mph SW5.0 kmh SW 4.5 mph7.2 kmh 30.27 in1025.1 mb 0.00 in0.0 mm 0.00 in0.0 mm 0.00 in0.0 mm
05:30 AM 36.9°F2.7°C 31.9°F-0.1°C 82% 2.2 mph SW3.5 kmh SW 4.5 mph7.2 kmh 30.26 in1024.7 mb 0.00 in0.0 mm 0.00 in0.0 mm 0.00 in0.0 mm
05:20 AM 36.9°F2.7°C 31.6°F-0.2°C 81% 3.1 mph SW5.0 kmh SW 5.4 mph8.7 kmh 30.26 in1024.7 mb 0.00 in0.0 mm 0.00 in0.0 mm 0.00 in0.0 mm
05:10 AM 37.0°F2.8°C 32.1°F0.1°C 82% 3.8 mph SW6.1 kmh SW 5.4 mph8.7 kmh 30.25 in1024.4 mb 0.00 in0.0 mm 0.00 in0.0 mm 0.00 in0.0 mm
05:00 AM 37.2°F2.9°C 32.2°F0.1°C 82% 4.5 mph SW7.2 kmh SW 5.4 mph8.7 kmh 30.25 in1024.4 mb 0.00 in0.0 mm 0.00 in0.0 mm 0.00 in0.0 mm
04:50 AM 37.0°F2.8°C 31.8°F-0.1°C 81% 4.5 mph SW7.2 kmh SW 5.4 mph8.7 kmh 30.25 in1024.4 mb 0.00 in0.0 mm 0.00 in0.0 mm 0.00 in0.0 mm
04:40 AM 36.7°F2.6°C 31.4°F-0.3°C 81% 3.8 mph SW6.1 kmh SW 5.4 mph8.7 kmh 30.25 in1024.4 mb 0.00 in0.0 mm 0.00 in0.0 mm 0.00 in0.0 mm
04:30 AM 36.7°F2.6°C 31.4°F-0.3°C 81% 4.5 mph SW7.2 kmh SW 6.9 mph11.1 kmh 30.25 in1024.4 mb 0.00 in0.0 mm 0.00 in0.0 mm 0.00 in0.0 mm
04:20 AM 36.9°F2.7°C 31.6°F-0.2°C 81% 5.4 mph SSW8.7 kmh SSW 6.9 mph11.1 kmh 30.25 in1024.4 mb 0.00 in0.0 mm 0.00 in0.0 mm 0.00 in0.0 mm
04:10 AM 36.7°F2.6°C 31.1°F-0.5°C 80% 3.8 mph SW6.1 kmh SW 4.5 mph7.2 kmh 30.24 in1024.0 mb 0.00 in0.0 mm 0.00 in0.0 mm 0.00 in0.0 mm
04:00 AM 36.5°F2.5°C 30.9°F-0.6°C 80% 3.1 mph SW5.0 kmh SW 3.8 mph6.1 kmh 30.23 in1023.7 mb 0.00 in0.0 mm 0.00 in0.0 mm 0.00 in0.0 mm
03:50 AM 36.3°F2.4°C 30.8°F-0.7°C 80% 2.2 mph SW3.5 kmh SW 3.8 mph6.1 kmh 30.24 in1024.0 mb 0.00 in0.0 mm 0.00 in0.0 mm 0.00 in0.0 mm
03:40 AM 36.5°F2.5°C 30.9°F-0.6°C 80% 1.6 mph SW2.6 kmh SW 3.8 mph6.1 kmh 30.24 in1024.0 mb 0.00 in0.0 mm 0.00 in0.0 mm 0.00 in0.0 mm
03:30 AM 36.3°F2.4°C 30.4°F-0.9°C 79% 1.6 mph SW2.6 kmh SW 3.8 mph6.1 kmh 30.23 in1023.7 mb 0.00 in0.0 mm 0.00 in0.0 mm 0.00 in0.0 mm
03:20 AM 36.5°F2.5°C 30.3°F-0.9°C 78% 2.2 mph SW3.5 kmh SW 3.8 mph6.1 kmh 30.23 in1023.7 mb 0.00 in0.0 mm 0.00 in0.0 mm 0.00 in0.0 mm
03:10 AM 36.9°F2.7°C 31.0°F-0.6°C 79% 3.1 mph SW5.0 kmh SW 3.8 mph6.1 kmh 30.23 in1023.7 mb 0.00 in0.0 mm 0.00 in0.0 mm 0.00 in0.0 mm
03:00 AM 36.7°F2.6°C 30.5°F-0.8°C 78% 2.2 mph SW3.5 kmh SW 4.5 mph7.2 kmh 30.22 in1023.4 mb 0.00 in0.0 mm 0.00 in0.0 mm 0.00 in0.0 mm
02:50 AM 37.0°F2.8°C 30.5°F-0.8°C 77% 3.1 mph SW5.0 kmh SW 4.5 mph7.2 kmh 30.22 in1023.4 mb 0.00 in0.0 mm 0.00 in0.0 mm 0.00 in0.0 mm
02:40 AM 37.2°F2.9°C 30.7°F-0.7°C 77% 3.8 mph SW6.1 kmh SW 5.4 mph8.7 kmh 30.22 in1023.4 mb 0.00 in0.0 mm 0.00 in0.0 mm 0.00 in0.0 mm
02:30 AM 37.2°F2.9°C 30.4°F-0.9°C 76% 3.1 mph SW5.0 kmh SW 4.5 mph7.2 kmh 30.22 in1023.4 mb 0.00 in0.0 mm 0.00 in0.0 mm 0.00 in0.0 mm
02:20 AM 37.4°F3.0°C 30.9°F-0.6°C 77% 3.1 mph SW5.0 kmh SW 5.4 mph8.7 kmh 30.22 in1023.4 mb 0.00 in0.0 mm 0.00 in0.0 mm 0.00 in0.0 mm
02:10 AM 37.6°F3.1°C 30.7°F-0.7°C 76% 3.8 mph SW6.1 kmh SW 4.5 mph7.2 kmh 30.22 in1023.4 mb 0.00 in0.0 mm 0.00 in0.0 mm 0.00 in0.0 mm
02:00 AM 37.8°F3.2°C 30.9°F-0.6°C 76% 3.8 mph SW6.1 kmh SW 5.4 mph8.7 kmh 30.21 in1023.0 mb 0.00 in0.0 mm 0.00 in0.0 mm 0.00 in0.0 mm
01:50 AM 37.6°F3.1°C 30.4°F-0.9°C 75% 3.1 mph SW5.0 kmh SW 4.5 mph7.2 kmh 30.21 in1023.0 mb 0.00 in0.0 mm 0.00 in0.0 mm 0.00 in0.0 mm
01:40 AM 37.9°F3.3°C 30.4°F-0.9°C 74% 3.1 mph SW5.0 kmh SW 4.5 mph7.2 kmh 30.22 in1023.4 mb 0.00 in0.0 mm 0.00 in0.0 mm 0.00 in0.0 mm
01:30 AM 38.1°F3.4°C 30.6°F-0.8°C 74% 3.1 mph SW5.0 kmh SW 4.5 mph7.2 kmh 30.20 in1022.7 mb 0.00 in0.0 mm 0.00 in0.0 mm 0.00 in0.0 mm
01:20 AM 38.3°F3.5°C 30.8°F-0.7°C 74% 3.1 mph SW5.0 kmh SW 5.4 mph8.7 kmh 30.20 in1022.7 mb 0.00 in0.0 mm 0.00 in0.0 mm 0.00 in0.0 mm
01:10 AM 38.5°F3.6°C 30.6°F-0.8°C 73% 3.8 mph SW6.1 kmh SW 5.4 mph8.7 kmh 30.20 in1022.7 mb 0.00 in0.0 mm 0.00 in0.0 mm 0.00 in0.0 mm
01:00 AM 38.8°F3.8°C 30.9°F-0.6°C 73% 3.8 mph SW6.1 kmh SW 4.5 mph7.2 kmh 30.20 in1022.7 mb 0.00 in0.0 mm 0.00 in0.0 mm 0.00 in0.0 mm
12:50 AM 38.8°F3.8°C 30.9°F-0.6°C 73% 3.8 mph SW6.1 kmh SW 6.0 mph9.7 kmh 30.20 in1022.7 mb 0.00 in0.0 mm 0.00 in0.0 mm 0.00 in0.0 mm
12:40 AM 38.8°F3.8°C 30.6°F-0.8°C 72% 4.5 mph SW7.2 kmh SW 6.0 mph9.7 kmh 30.19 in1022.4 mb 0.00 in0.0 mm 0.00 in0.0 mm 0.00 in0.0 mm
12:30 AM 39.2°F4.0°C 30.9°F-0.6°C 72% 4.5 mph SW7.2 kmh SW 6.9 mph11.1 kmh 30.19 in1022.4 mb 0.00 in0.0 mm 0.00 in0.0 mm 0.00 in0.0 mm
12:20 AM 39.7°F4.3°C 31.1°F-0.5°C 71% 6.0 mph SW9.7 kmh SW 7.6 mph12.2 kmh 30.18 in1022.0 mb 0.00 in0.0 mm 0.00 in0.0 mm 0.00 in0.0 mm
12:10 AM 39.9°F4.4°C 31.3°F-0.4°C 71% 4.5 mph SW7.2 kmh SW 6.9 mph11.1 kmh 30.19 in1022.4 mb 0.00 in0.0 mm 0.00 in0.0 mm 0.00 in0.0 mm
12:00 AM 39.9°F4.4°C 31.3°F-0.4°C 71% 5.4 mph SW8.7 kmh SW 6.9 mph11.1 kmh 30.19 in1022.4 mb 0.00 in0.0 mm 0.00 in0.0 mm 0.00 in0.0 mm